createdAt,value
2017-10-12T00:00:14.217Z,22.39
2017-10-12T00:01:22.882Z,22.39
2017-10-12T00:02:32.531Z,22.42
2017-10-12T00:03:41.195Z,22.36
2017-10-12T00:04:50.500Z,22.36
2017-10-12T00:05:59.506Z,22.39
2017-10-12T00:07:08.509Z,22.42
2017-10-12T00:08:17.827Z,22.37
2017-10-12T00:09:27.154Z,22.42
2017-10-12T00:10:36.144Z,22.36
2017-10-12T00:11:45.471Z,22.46
2017-10-12T00:12:55.122Z,22.39
2017-10-12T00:14:04.428Z,22.43
2017-10-12T00:15:13.416Z,22.4
2017-10-12T00:16:22.430Z,22.46
2017-10-12T00:17:31.731Z,22.36
2017-10-12T00:18:40.701Z,22.42
2017-10-12T00:19:49.671Z,22.4
2017-10-12T00:20:58.969Z,22.37
2017-10-12T00:22:08.278Z,22.36
2017-10-12T00:23:18.257Z,22.4
2017-10-12T00:24:27.227Z,22.39
2017-10-12T00:25:36.531Z,22.39
2017-10-12T00:26:45.842Z,22.36
2017-10-12T00:27:54.488Z,22.45
2017-10-12T00:29:03.788Z,22.42
2017-10-12T00:30:12.775Z,22.39
2017-10-12T00:31:21.414Z,22.37
2017-10-12T00:32:30.394Z,22.39
2017-10-12T00:33:39.429Z,22.37
2017-10-12T00:34:49.393Z,22.36
2017-10-12T00:35:58.360Z,22.4
2017-10-12T00:37:07.329Z,22.42
2017-10-12T00:38:16.000Z,22.4
2017-10-12T00:39:25.133Z,22.39
2017-10-12T00:40:33.789Z,22.46
2017-10-12T00:41:42.836Z,22.4
2017-10-12T00:42:51.848Z,22.45
2017-10-12T00:44:00.864Z,22.39
2017-10-12T00:45:10.548Z,22.43
2017-10-12T00:46:19.536Z,22.39
2017-10-12T00:47:28.896Z,22.37
2017-10-12T00:48:38.634Z,22.46
2017-10-12T00:49:47.652Z,22.37
2017-10-12T00:50:57.263Z,22.4
2017-10-12T00:52:06.246Z,22.45
2017-10-12T00:53:15.236Z,22.36
2017-10-12T00:54:24.894Z,22.37
2017-10-12T00:55:33.556Z,22.45
2017-10-12T00:56:42.852Z,22.39
2017-10-12T00:57:52.171Z,22.39
2017-10-12T00:59:01.520Z,22.39
2017-10-12T01:00:10.863Z,22.46
2017-10-12T01:01:19.511Z,22.42
2017-10-12T01:02:29.126Z,22.45
2017-10-12T01:03:38.163Z,22.45
2017-10-12T01:04:46.826Z,22.45
2017-10-12T01:05:55.836Z,22.4
2017-10-12T01:07:04.509Z,22.37
2017-10-12T01:08:13.595Z,22.39
2017-10-12T01:09:22.575Z,22.42
2017-10-12T01:10:31.879Z,22.37
2017-10-12T01:11:40.880Z,22.36
2017-10-12T01:12:50.203Z,22.37
2017-10-12T01:13:58.977Z,22.37
2017-10-12T01:15:07.954Z,22.43
2017-10-12T01:16:17.625Z,22.39
2017-10-12T01:17:26.604Z,22.37
2017-10-12T01:18:35.940Z,22.39
2017-10-12T01:19:45.602Z,22.4
2017-10-12T01:20:54.600Z,22.43
2017-10-12T01:22:03.251Z,22.47
2017-10-12T01:23:11.919Z,22.39
2017-10-12T01:24:20.908Z,22.36
2017-10-12T01:25:30.241Z,22.46
2017-10-12T01:26:39.900Z,22.37
2017-10-12T01:27:48.914Z,22.43
2017-10-12T01:28:57.914Z,22.37
2017-10-12T01:30:06.909Z,22.47
2017-10-12T01:31:16.234Z,22.43
2017-10-12T01:32:25.866Z,22.4
2017-10-12T01:33:34.844Z,22.39
2017-10-12T01:34:43.843Z,22.42
2017-10-12T01:35:52.489Z,22.4
2017-10-12T01:37:01.488Z,22.37
2017-10-12T01:38:10.179Z,22.4
2017-10-12T01:39:19.849Z,22.39
2017-10-12T01:40:28.512Z,22.46
2017-10-12T01:41:37.822Z,22.4
2017-10-12T01:42:46.819Z,22.43
2017-10-12T01:43:55.804Z,22.36
2017-10-12T01:45:04.457Z,22.37
2017-10-12T01:46:13.110Z,22.47
2017-10-12T01:47:22.097Z,22.46
2017-10-12T01:48:31.094Z,22.4
2017-10-12T01:49:40.088Z,22.47
2017-10-12T01:50:48.938Z,22.36
2017-10-12T01:51:57.607Z,22.4
2017-10-12T01:53:06.601Z,22.4
2017-10-12T01:54:15.591Z,22.46
2017-10-12T01:55:24.606Z,22.4
2017-10-12T01:56:34.300Z,22.46
2017-10-12T01:57:43.312Z,22.36
2017-10-12T01:58:52.010Z,22.46
2017-10-12T02:00:01.663Z,22.4
2017-10-12T02:01:10.337Z,22.43
2017-10-12T02:02:19.339Z,22.39
2017-10-12T02:03:28.375Z,22.36
2017-10-12T02:04:37.365Z,22.45
2017-10-12T02:05:46.801Z,22.39
2017-10-12T02:06:55.792Z,22.37
2017-10-12T02:08:04.476Z,22.39
2017-10-12T02:09:14.462Z,22.39
2017-10-12T02:10:23.479Z,22.39
2017-10-12T02:11:32.453Z,22.37
2017-10-12T02:12:41.111Z,22.4
2017-10-12T02:13:49.778Z,22.42
2017-10-12T02:14:59.100Z,22.45
2017-10-12T02:16:08.091Z,22.47
2017-10-12T02:17:17.089Z,22.37
2017-10-12T02:18:26.126Z,22.37
2017-10-12T02:19:35.781Z,22.47
2017-10-12T02:20:44.780Z,22.42
2017-10-12T02:21:53.794Z,22.45
2017-10-12T02:23:03.106Z,22.39
2017-10-12T02:24:12.085Z,22.39
2017-10-12T02:25:21.387Z,22.46
2017-10-12T02:26:30.367Z,22.37
2017-10-12T02:27:39.370Z,22.4
2017-10-12T02:28:48.974Z,22.39
2017-10-12T02:29:57.698Z,22.37
2017-10-12T02:31:06.705Z,22.45
2017-10-12T02:32:15.369Z,22.4
2017-10-12T02:33:24.390Z,22.4
2017-10-12T02:34:33.376Z,22.4
2017-10-12T02:35:42.730Z,22.36
2017-10-12T02:36:52.071Z,22.37
2017-10-12T02:38:01.709Z,22.36
2017-10-12T02:39:11.032Z,22.39
2017-10-12T02:40:20.137Z,22.47
2017-10-12T02:41:28.835Z,22.47
2017-10-12T02:42:37.508Z,22.45
2017-10-12T02:43:46.845Z,22.37
2017-10-12T02:44:56.169Z,22.46
2017-10-12T02:46:05.172Z,22.39
2017-10-12T02:47:14.853Z,22.4
2017-10-12T02:48:24.497Z,22.45
2017-10-12T02:49:33.837Z,22.46
2017-10-12T02:50:42.511Z,22.37
2017-10-12T02:51:52.248Z,22.45
2017-10-12T02:53:01.605Z,22.47
2017-10-12T02:54:10.588Z,22.36
2017-10-12T02:55:19.235Z,22.39
2017-10-12T02:56:28.224Z,22.47
2017-10-12T02:57:37.274Z,22.45
2017-10-12T02:58:46.619Z,22.39
2017-10-12T02:59:55.966Z,22.47
2017-10-12T03:01:04.981Z,22.37
2017-10-12T03:02:13.672Z,22.36
2017-10-12T03:03:22.992Z,22.49
2017-10-12T03:04:32.671Z,22.4
2017-10-12T03:05:41.685Z,22.4
2017-10-12T03:06:51.654Z,22.37
2017-10-12T03:08:00.318Z,22.47
2017-10-12T03:09:09.657Z,22.43
2017-10-12T03:10:18.662Z,22.39
2017-10-12T03:11:27.985Z,22.45
2017-10-12T03:12:36.982Z,22.37
2017-10-12T03:13:46.286Z,22.47
2017-10-12T03:14:55.561Z,22.46
2017-10-12T03:16:04.551Z,22.45
2017-10-12T03:17:13.203Z,22.36
2017-10-12T03:18:22.179Z,22.42
2017-10-12T03:19:30.827Z,22.49
2017-10-12T03:20:40.128Z,22.43
2017-10-12T03:21:49.129Z,22.43
2017-10-12T03:22:58.456Z,22.39
2017-10-12T03:24:07.781Z,22.46
2017-10-12T03:25:16.440Z,22.4
2017-10-12T03:26:25.424Z,22.45
2017-10-12T03:27:34.415Z,22.45
2017-10-12T03:28:43.079Z,22.45
2017-10-12T03:29:51.725Z,22.4
2017-10-12T03:31:00.383Z,22.47
2017-10-12T03:32:09.473Z,22.45
2017-10-12T03:33:18.458Z,22.4
2017-10-12T03:34:27.773Z,22.36
2017-10-12T03:35:36.506Z,22.42
2017-10-12T03:36:45.166Z,22.39
2017-10-12T03:37:54.178Z,22.46
2017-10-12T03:39:02.832Z,22.46
2017-10-12T03:40:12.477Z,22.36
2017-10-12T03:41:21.207Z,22.4
2017-10-12T03:42:29.897Z,22.46
2017-10-12T03:43:39.564Z,22.45
2017-10-12T03:44:48.892Z,22.43
2017-10-12T03:45:57.874Z,22.4
2017-10-12T03:47:06.868Z,22.42
2017-10-12T03:48:15.601Z,22.45
2017-10-12T03:49:24.608Z,22.37
2017-10-12T03:50:33.607Z,22.45
2017-10-12T03:51:42.935Z,22.45
2017-10-12T03:52:51.928Z,22.37
2017-10-12T03:54:00.922Z,22.43
2017-10-12T03:55:10.280Z,22.43
2017-10-12T03:56:19.287Z,22.37
2017-10-12T03:57:28.280Z,22.47
2017-10-12T03:58:36.931Z,22.37
2017-10-12T03:59:45.922Z,22.4
2017-10-12T04:00:55.247Z,22.36
2017-10-12T04:02:04.226Z,22.43
2017-10-12T04:03:12.892Z,22.37
2017-10-12T04:04:21.559Z,22.45
2017-10-12T04:05:30.208Z,22.4
2017-10-12T04:06:38.872Z,22.47
2017-10-12T04:07:48.211Z,22.42
2017-10-12T04:08:57.543Z,22.37
2017-10-12T04:10:06.645Z,22.36
2017-10-12T04:11:15.302Z,22.4
2017-10-12T04:12:24.418Z,22.45
2017-10-12T04:13:33.075Z,22.45
2017-10-12T04:14:41.742Z,22.39
2017-10-12T04:15:51.059Z,22.4
2017-10-12T04:17:00.378Z,22.47
2017-10-12T04:18:09.696Z,22.42
2017-10-12T04:19:19.025Z,22.46
2017-10-12T04:20:27.692Z,22.4
2017-10-12T04:21:37.368Z,22.45
2017-10-12T04:22:46.680Z,22.47
2017-10-12T04:23:55.445Z,22.43
2017-10-12T04:25:05.093Z,22.39
2017-10-12T04:26:14.479Z,22.43
2017-10-12T04:27:23.490Z,22.47
2017-10-12T04:28:32.804Z,22.37
2017-10-12T04:29:41.524Z,22.43
2017-10-12T04:30:50.190Z,22.47
2017-10-12T04:31:59.197Z,22.43
2017-10-12T04:33:08.018Z,22.43
2017-10-12T04:34:17.034Z,22.45
2017-10-12T04:35:26.718Z,22.46
2017-10-12T04:36:35.710Z,22.4
2017-10-12T04:37:44.704Z,22.37
2017-10-12T04:38:54.347Z,22.45
2017-10-12T04:40:03.048Z,22.47
2017-10-12T04:41:12.055Z,22.47
2017-10-12T04:42:21.706Z,22.39
2017-10-12T04:43:30.426Z,22.4
2017-10-12T04:44:39.137Z,22.42
2017-10-12T04:45:48.787Z,22.37
2017-10-12T04:46:58.107Z,22.39
2017-10-12T04:48:06.795Z,22.43
2017-10-12T04:49:15.815Z,22.37
2017-10-12T04:50:25.454Z,22.36
2017-10-12T04:51:34.769Z,22.35
2017-10-12T04:52:44.129Z,22.35
2017-10-12T04:53:53.135Z,22.37
2017-10-12T04:55:02.137Z,22.35
2017-10-12T04:56:11.454Z,22.36
2017-10-12T04:57:20.428Z,22.39
2017-10-12T04:58:30.166Z,22.42
2017-10-12T04:59:38.817Z,22.31
2017-10-12T05:00:47.480Z,22.43
2017-10-12T05:01:56.133Z,22.36
2017-10-12T05:03:05.124Z,22.4
2017-10-12T05:04:14.121Z,22.4
2017-10-12T05:05:23.116Z,22.42
2017-10-12T05:06:31.792Z,22.39
2017-10-12T05:07:41.113Z,22.39
2017-10-12T05:08:50.774Z,22.43
2017-10-12T05:10:00.101Z,22.45
2017-10-12T05:11:08.784Z,22.4
2017-10-12T05:12:18.113Z,22.39
2017-10-12T05:13:27.101Z,22.46
2017-10-12T05:14:36.110Z,22.46
2017-10-12T05:15:45.753Z,22.47
2017-10-12T05:16:54.429Z,22.46
2017-10-12T05:18:03.093Z,22.42
2017-10-12T05:19:12.075Z,22.43
2017-10-12T05:20:20.740Z,22.52
2017-10-12T05:21:30.069Z,22.45
2017-10-12T05:22:39.065Z,22.45
2017-10-12T05:23:47.770Z,22.57
2017-10-12T05:24:56.776Z,22.54
2017-10-12T05:26:05.758Z,22.55
2017-10-12T05:27:15.086Z,22.57
2017-10-12T05:28:24.449Z,22.64
2017-10-12T05:29:33.147Z,22.6
2017-10-12T05:30:41.837Z,22.58
2017-10-12T05:31:51.560Z,22.62
2017-10-12T05:33:00.560Z,22.67
2017-10-12T05:34:09.607Z,22.61
2017-10-12T05:35:18.615Z,22.67
2017-10-12T05:36:27.631Z,22.58
2017-10-12T05:37:37.377Z,22.6
2017-10-12T05:38:46.753Z,22.65
2017-10-12T05:39:56.472Z,22.72
2017-10-12T05:41:05.679Z,22.75
2017-10-12T05:42:15.023Z,22.64
2017-10-12T05:43:24.677Z,22.72
2017-10-12T05:44:34.120Z,22.75
2017-10-12T05:45:43.143Z,22.68
2017-10-12T05:46:52.157Z,22.77
2017-10-12T05:48:01.466Z,22.79
2017-10-12T05:49:10.457Z,22.8
2017-10-12T05:50:19.230Z,22.8
2017-10-12T05:51:28.559Z,22.82
2017-10-12T05:52:38.239Z,22.7
2017-10-12T05:53:46.912Z,22.62
2017-10-12T05:54:56.265Z,22.67
2017-10-12T05:56:05.612Z,22.58
2017-10-12T05:57:15.342Z,22.55
2017-10-12T05:58:24.466Z,22.43
2017-10-12T05:59:33.469Z,22.45
2017-10-12T06:00:42.177Z,22.39
2017-10-12T06:01:51.170Z,22.37
2017-10-12T06:03:00.516Z,22.3
2017-10-12T06:04:10.210Z,22.35
2017-10-12T06:05:19.601Z,22.36
2017-10-12T06:06:28.625Z,22.3
2017-10-12T06:07:37.958Z,22.33
2017-10-12T06:08:46.962Z,22.25
2017-10-12T06:09:56.648Z,22.35
2017-10-12T06:11:05.645Z,22.4
2017-10-12T06:12:14.305Z,22.36
2017-10-12T06:13:23.285Z,22.42
2017-10-12T06:14:32.266Z,22.39
2017-10-12T06:15:41.280Z,22.43
2017-10-12T06:16:50.251Z,22.45
2017-10-12T06:17:59.551Z,22.45
2017-10-12T06:19:08.208Z,22.46
2017-10-12T06:20:17.198Z,22.45
2017-10-12T06:21:26.184Z,22.4
2017-10-12T06:22:35.489Z,22.46
2017-10-12T06:23:44.149Z,22.47
2017-10-12T06:26:01.243Z,22.51
2017-10-12T06:27:10.660Z,22.61
2017-10-12T06:28:19.745Z,22.54
2017-10-12T06:29:28.495Z,22.57
2017-10-12T06:30:37.570Z,22.55
2017-10-12T06:31:46.327Z,22.61
2017-10-12T06:32:55.753Z,22.58
2017-10-12T06:34:04.881Z,22.49
2017-10-12T06:35:14.636Z,22.58
2017-10-12T06:36:23.713Z,22.55
2017-10-12T06:37:33.790Z,22.62
2017-10-12T06:38:43.274Z,22.6
2017-10-12T06:39:53.050Z,22.6
2017-10-12T06:41:02.455Z,22.61
2017-10-12T06:42:11.896Z,22.58
2017-10-12T06:43:21.010Z,22.58
2017-10-12T06:44:30.137Z,22.67
2017-10-12T06:45:39.555Z,22.67
2017-10-12T06:46:48.303Z,22.58
2017-10-12T06:47:57.046Z,22.65
2017-10-12T06:49:06.581Z,22.64
2017-10-12T06:50:16.002Z,22.55
2017-10-12T06:51:24.771Z,22.6
2017-10-12T06:52:34.181Z,22.67
2017-10-12T06:53:43.272Z,22.6
2017-10-12T06:54:52.012Z,22.68
2017-10-12T06:56:01.439Z,22.72
2017-10-12T06:57:10.513Z,22.68
2017-10-12T06:58:19.582Z,22.72
2017-10-12T06:59:28.353Z,22.7
2017-10-12T07:00:37.510Z,22.72
2017-10-12T07:01:46.598Z,22.75
2017-10-12T07:02:55.348Z,22.73
2017-10-12T07:04:04.128Z,22.79
2017-10-12T07:05:13.858Z,22.76
2017-10-12T07:06:22.944Z,22.75
2017-10-12T07:07:32.368Z,22.75
2017-10-12T07:08:41.454Z,22.73
2017-10-12T07:09:50.205Z,22.7
2017-10-12T07:10:58.952Z,22.7
2017-10-12T07:12:08.045Z,22.75
2017-10-12T07:13:17.145Z,22.72
2017-10-12T07:14:26.560Z,22.7
2017-10-12T07:15:36.001Z,22.77
2017-10-12T07:16:45.115Z,22.77
2017-10-12T07:17:54.941Z,22.82
2017-10-12T07:19:03.723Z,22.77
2017-10-12T07:20:12.903Z,22.86
2017-10-12T07:21:22.365Z,22.82
2017-10-12T07:22:31.457Z,22.85
2017-10-12T07:23:40.907Z,22.79
2017-10-12T07:24:50.076Z,22.9
2017-10-12T07:25:59.503Z,22.91
2017-10-12T07:27:08.236Z,22.86
2017-10-12T07:28:16.989Z,22.83
2017-10-12T07:29:26.092Z,22.88
2017-10-12T07:30:35.525Z,22.91
2017-10-12T07:31:44.949Z,22.9
2017-10-12T07:32:54.427Z,22.83
2017-10-12T07:34:03.854Z,22.91
2017-10-12T07:35:13.044Z,22.88
2017-10-12T07:36:22.474Z,22.9
2017-10-12T07:37:31.546Z,22.9
2017-10-12T07:38:40.963Z,22.9
2017-10-12T07:39:49.744Z,22.91
2017-10-12T07:40:58.911Z,22.92
2017-10-12T07:42:08.009Z,22.91
2017-10-12T07:43:16.719Z,22.9
2017-10-12T07:44:25.713Z,22.95
2017-10-12T07:45:34.381Z,22.94
2017-10-12T07:46:43.124Z,22.9
2017-10-12T07:47:52.126Z,22.88
2017-10-12T07:49:00.810Z,22.95
2017-10-12T07:50:09.479Z,22.97
2017-10-12T07:51:18.484Z,23.04
2017-10-12T07:52:27.480Z,23.02
2017-10-12T07:53:36.528Z,23.01
2017-10-12T07:54:45.534Z,23
2017-10-12T07:55:54.553Z,23.05
2017-10-12T07:57:03.896Z,23.05
2017-10-12T07:58:12.578Z,23.05
2017-10-12T07:59:22.253Z,23.09
2017-10-12T08:00:31.613Z,23.09
2017-10-12T08:01:40.597Z,23.05
2017-10-12T08:02:49.261Z,23.04
2017-10-12T08:03:58.697Z,23.04
2017-10-12T08:05:07.694Z,23.04
2017-10-12T08:06:17.040Z,23.02
2017-10-12T08:07:26.485Z,23.05
2017-10-12T08:08:35.496Z,23.04
2017-10-12T08:09:44.534Z,23.05
2017-10-12T08:10:54.213Z,23.05
2017-10-12T08:12:02.881Z,23.01
2017-10-12T08:13:11.904Z,22.98
2017-10-12T08:14:20.557Z,23.09
2017-10-12T08:15:30.209Z,23.07
2017-10-12T08:16:39.205Z,23.05
2017-10-12T08:17:48.219Z,23.15
2017-10-12T08:18:57.214Z,23.07
2017-10-12T08:20:06.548Z,23.15
2017-10-12T08:21:15.227Z,23.15
2017-10-12T08:22:24.609Z,23.12
2017-10-12T08:23:33.616Z,23.12
2017-10-12T08:24:43.285Z,23.13
2017-10-12T08:25:52.363Z,23.07
2017-10-12T08:27:01.463Z,23.05
2017-10-12T08:28:11.098Z,23.05
2017-10-12T08:29:20.747Z,23.05
2017-10-12T08:30:30.735Z,23.05
2017-10-12T08:31:39.800Z,23.05
2017-10-12T08:32:48.775Z,23.05
2017-10-12T08:33:57.492Z,23.05
2017-10-12T08:35:07.158Z,23.09
2017-10-12T08:36:16.162Z,23.05
2017-10-12T08:37:24.838Z,23.05
2017-10-12T08:38:34.164Z,23.05
2017-10-12T08:39:43.151Z,23.01
2017-10-12T08:40:52.477Z,23.07
2017-10-12T08:42:01.805Z,23.04
2017-10-12T08:43:11.127Z,23.1
2017-10-12T08:44:19.799Z,23.05
2017-10-12T08:45:29.142Z,23.13
2017-10-12T08:46:38.136Z,23.09
2017-10-12T08:47:47.153Z,23.05
2017-10-12T08:48:56.540Z,23.09
2017-10-12T08:50:06.192Z,23.16
2017-10-12T08:51:14.863Z,23.12
2017-10-12T08:52:24.192Z,23.1
2017-10-12T08:53:33.184Z,23.12
2017-10-12T08:54:42.179Z,23.15
2017-10-12T08:55:51.813Z,23.07
2017-10-12T08:57:00.830Z,23.15
2017-10-12T08:58:10.500Z,23.07
2017-10-12T08:59:19.198Z,23.05
2017-10-12T09:00:28.541Z,23.1
2017-10-12T09:01:37.565Z,23.1
2017-10-12T09:02:47.247Z,23.12
2017-10-12T09:03:56.253Z,23.12
2017-10-12T09:05:05.250Z,23.07
2017-10-12T09:06:14.953Z,23.02
2017-10-12T09:07:24.310Z,23.02
2017-10-12T09:08:33.646Z,23.13
2017-10-12T09:09:42.326Z,23.12
2017-10-12T09:10:51.368Z,23.07
2017-10-12T09:12:00.049Z,23.07
2017-10-12T09:13:08.846Z,23.13
2017-10-12T09:14:17.842Z,23.15
2017-10-12T09:15:26.536Z,23.09
2017-10-12T09:16:35.543Z,23.15
2017-10-12T09:17:44.545Z,23.02
2017-10-12T09:18:53.861Z,23.12
2017-10-12T09:20:03.220Z,23.07
2017-10-12T09:21:11.904Z,23.13
2017-10-12T09:22:21.564Z,23.16
2017-10-12T09:23:30.892Z,23.15
2017-10-12T09:24:39.563Z,23.07
2017-10-12T09:25:48.276Z,23.1
2017-10-12T09:26:57.278Z,23.09
2017-10-12T09:28:06.290Z,23.04
2017-10-12T09:29:15.929Z,23.02
2017-10-12T09:30:24.953Z,23.13
2017-10-12T09:31:34.268Z,23.05
2017-10-12T09:32:43.934Z,23
2017-10-12T09:33:52.922Z,23.04
2017-10-12T09:35:01.938Z,23.1
2017-10-12T09:36:10.957Z,23.01
2017-10-12T09:37:19.973Z,23.07
2017-10-12T09:38:29.008Z,23.04
2017-10-12T09:39:38.024Z,23.01
2017-10-12T09:40:46.708Z,22.97
2017-10-12T09:41:55.389Z,23.01
2017-10-12T09:43:04.406Z,23
2017-10-12T09:44:13.081Z,22.95
2017-10-12T09:45:22.441Z,23
2017-10-12T09:46:31.139Z,22.94
2017-10-12T09:47:40.219Z,23.02
2017-10-12T09:48:49.238Z,22.95
2017-10-12T09:49:57.907Z,22.95
2017-10-12T09:51:06.982Z,22.92
2017-10-12T09:52:15.780Z,22.92
2017-10-12T09:53:25.110Z,23
2017-10-12T09:54:34.799Z,22.94
2017-10-12T09:55:43.485Z,22.85
2017-10-12T09:56:52.193Z,22.94
2017-10-12T09:58:00.886Z,22.91
2017-10-12T09:59:09.605Z,22.97
2017-10-12T10:00:19.582Z,22.98
2017-10-12T10:01:28.906Z,22.94
2017-10-12T10:02:37.893Z,22.97
2017-10-12T10:03:46.574Z,22.94
2017-10-12T10:04:56.281Z,22.92
2017-10-12T10:06:05.266Z,22.95
2017-10-12T10:07:14.627Z,22.98
2017-10-12T10:08:24.004Z,22.91
2017-10-12T10:09:33.323Z,22.92
2017-10-12T10:10:42.081Z,22.95
2017-10-12T10:11:51.083Z,22.95
2017-10-12T10:12:59.751Z,22.95
2017-10-12T10:14:09.433Z,23.02
2017-10-12T10:15:18.850Z,22.97
2017-10-12T10:16:27.875Z,23.05
2017-10-12T10:17:37.584Z,23.05
2017-10-12T10:18:46.602Z,23.09
2017-10-12T10:19:55.945Z,23.1
2017-10-12T10:21:04.964Z,22.98
2017-10-12T10:22:14.433Z,23.05
2017-10-12T10:23:23.765Z,23.04
2017-10-12T10:24:32.443Z,23.05
2017-10-12T10:25:42.127Z,23.1
2017-10-12T10:26:51.778Z,23.05
2017-10-12T10:28:00.569Z,23.01
2017-10-12T10:29:09.938Z,23.05
2017-10-12T10:30:19.294Z,23.1
2017-10-12T10:31:28.628Z,23.01
2017-10-12T10:32:37.296Z,23.05
2017-10-12T10:33:46.284Z,23.13
2017-10-12T10:34:55.966Z,23.1
2017-10-12T10:36:04.985Z,23.07
2017-10-12T10:37:14.652Z,23.05
2017-10-12T10:38:23.971Z,23.09
2017-10-12T10:39:33.646Z,23.19
2017-10-12T10:40:42.644Z,23.16
2017-10-12T10:41:51.631Z,23.13
2017-10-12T10:43:01.293Z,23.15
2017-10-12T10:44:10.675Z,23.09
2017-10-12T10:45:19.450Z,23.15
2017-10-12T10:46:28.782Z,23.17
2017-10-12T10:47:37.450Z,23.19
2017-10-12T10:48:46.767Z,23.2
2017-10-12T10:49:55.447Z,23.23
2017-10-12T10:51:04.232Z,23.23
2017-10-12T10:52:13.558Z,23.17
2017-10-12T10:53:22.568Z,23.19
2017-10-12T10:54:31.252Z,23.15
2017-10-12T10:55:40.591Z,23.2
2017-10-12T10:56:49.627Z,23.15
2017-10-12T10:57:58.995Z,23.15
2017-10-12T10:59:08.342Z,23.13
2017-10-12T11:00:17.359Z,23.17
2017-10-12T11:01:26.043Z,23.13
2017-10-12T11:02:35.136Z,23.15
2017-10-12T11:03:44.576Z,23.16
2017-10-12T11:04:54.277Z,23.1
2017-10-12T11:06:03.260Z,23.19
2017-10-12T11:07:12.262Z,23.15
2017-10-12T11:08:21.253Z,23.07
2017-10-12T11:09:30.596Z,23.1
2017-10-12T11:10:39.349Z,23.16
2017-10-12T11:11:48.366Z,23.07
2017-10-12T11:12:57.073Z,23.02
2017-10-12T11:14:06.100Z,23.07
2017-10-12T11:15:15.436Z,23.13
2017-10-12T11:16:24.804Z,23.1
2017-10-12T11:17:33.853Z,23.04
2017-10-12T11:18:43.497Z,23.07
2017-10-12T11:19:52.489Z,23.1
2017-10-12T11:21:01.531Z,23.12
2017-10-12T11:22:10.561Z,23.05
2017-10-12T11:23:19.241Z,23.05
2017-10-12T11:24:28.274Z,23.05
2017-10-12T11:25:37.953Z,23.04
2017-10-12T11:26:46.992Z,23.05
2017-10-12T11:27:56.016Z,23.07
2017-10-12T11:29:04.708Z,23.04
2017-10-12T11:30:13.727Z,23.05
2017-10-12T11:31:22.421Z,23.12
2017-10-12T11:32:31.147Z,23.09
2017-10-12T11:33:40.508Z,23.05
2017-10-12T11:34:49.195Z,23.09
2017-10-12T11:35:58.520Z,23.15
2017-10-12T11:37:07.575Z,23.13
2017-10-12T11:38:17.247Z,23.09
2017-10-12T11:39:26.600Z,23.13
2017-10-12T11:40:35.256Z,23.15
2017-10-12T11:41:43.940Z,23.16
2017-10-12T11:42:52.955Z,23.15
2017-10-12T11:44:02.296Z,23.02
2017-10-12T11:45:11.002Z,23.13
2017-10-12T11:46:20.027Z,23.05
2017-10-12T11:47:30.019Z,23.04
2017-10-12T11:48:39.050Z,23.04
2017-10-12T11:49:47.853Z,23.15
2017-10-12T11:50:56.904Z,23.15
2017-10-12T11:52:05.593Z,23.15
2017-10-12T11:53:14.638Z,23.15
2017-10-12T11:54:23.682Z,23.17
2017-10-12T11:55:32.715Z,23.15
2017-10-12T11:56:41.426Z,23.05
2017-10-12T11:57:50.430Z,23.1
2017-10-12T11:58:59.434Z,23.17
2017-10-12T12:00:08.749Z,23.13
2017-10-12T12:01:17.417Z,23.1
2017-10-12T12:02:27.094Z,23.1
2017-10-12T12:03:36.107Z,23.16
2017-10-12T12:04:45.494Z,23.16
2017-10-12T12:05:55.132Z,23.16
2017-10-12T12:07:04.780Z,23.15
2017-10-12T12:08:13.970Z,23.22
2017-10-12T12:09:22.984Z,23.2
2017-10-12T12:10:32.061Z,23.23
2017-10-12T12:11:41.728Z,23.15
2017-10-12T12:12:51.124Z,23.17
2017-10-12T12:14:00.186Z,23.15
2017-10-12T12:15:09.230Z,23.19
2017-10-12T12:16:18.604Z,23.15
2017-10-12T12:17:28.036Z,23.17
2017-10-12T12:18:37.722Z,23.15
2017-10-12T12:19:47.056Z,23.09
2017-10-12T12:20:56.182Z,23.16
2017-10-12T12:22:05.221Z,23.12
2017-10-12T12:23:15.058Z,23.13
2017-10-12T12:24:24.078Z,23.1
2017-10-12T12:25:33.094Z,23.19
2017-10-12T12:26:42.091Z,23.16
2017-10-12T12:27:51.794Z,23.19
2017-10-12T12:29:00.470Z,23.07
2017-10-12T12:30:09.491Z,23.13
2017-10-12T12:31:18.493Z,23.12
2017-10-12T12:32:27.820Z,23.17
2017-10-12T12:33:36.833Z,23.16
2017-10-12T12:34:45.503Z,23.13
2017-10-12T12:35:54.519Z,23.12
2017-10-12T12:37:03.193Z,23.05
2017-10-12T12:38:12.534Z,23.05
2017-10-12T12:39:21.951Z,23.05
2017-10-12T12:40:31.589Z,23.13
2017-10-12T12:41:40.920Z,23.16
2017-10-12T12:42:49.940Z,23.13
2017-10-12T12:43:58.992Z,23.04
2017-10-12T12:45:08.335Z,23.16
2017-10-12T12:46:17.214Z,23.07
2017-10-12T12:47:26.274Z,23.12
2017-10-12T12:48:35.618Z,23.13
2017-10-12T12:49:45.265Z,23.09
2017-10-12T12:50:56.813Z,23.13
2017-10-12T12:52:06.002Z,23.16
2017-10-12T12:53:15.690Z,23.1
2017-10-12T12:54:25.060Z,23.13
2017-10-12T12:55:34.090Z,23.07
2017-10-12T12:56:43.410Z,23.13
2017-10-12T12:57:52.422Z,23.05
2017-10-12T12:59:01.162Z,23.07
2017-10-12T13:00:10.550Z,23.04
2017-10-12T13:01:19.538Z,23.05
2017-10-12T13:02:28.880Z,23.05
2017-10-12T13:03:37.886Z,23.02
2017-10-12T13:04:47.245Z,23.1
2017-10-12T13:05:56.263Z,23.04
2017-10-12T13:07:05.587Z,22.98
2017-10-12T13:08:14.571Z,23.04
2017-10-12T13:09:23.604Z,23.05
2017-10-12T13:10:32.600Z,23.07
2017-10-12T13:11:42.289Z,23.05
2017-10-12T13:12:50.981Z,23.01
2017-10-12T13:13:59.683Z,23.02
2017-10-12T13:15:09.013Z,23
2017-10-12T13:16:18.023Z,23.05
2017-10-12T13:17:27.351Z,23.02
2017-10-12T13:18:36.685Z,23
2017-10-12T13:19:46.035Z,23.04
2017-10-12T13:20:55.046Z,23.04
2017-10-12T13:22:04.047Z,23.05
2017-10-12T13:23:13.087Z,23.04
2017-10-12T13:24:21.782Z,23
2017-10-12T13:25:31.137Z,23
2017-10-12T13:26:40.519Z,23.01
2017-10-12T13:27:49.515Z,23.01
2017-10-12T13:28:59.192Z,23.05
2017-10-12T13:30:08.550Z,23.01
2017-10-12T13:31:17.550Z,23.02
2017-10-12T13:32:26.941Z,23.09
2017-10-12T13:33:36.265Z,23.02
2017-10-12T13:34:45.264Z,23
2017-10-12T13:35:54.939Z,23.01
2017-10-12T13:37:03.994Z,23.09
2017-10-12T13:38:13.336Z,23.05
2017-10-12T13:39:22.670Z,23.05
2017-10-12T13:40:31.676Z,23.13
2017-10-12T13:41:40.691Z,23.01
2017-10-12T13:42:49.364Z,23.05
2017-10-12T13:43:58.046Z,23.05
2017-10-12T13:45:07.402Z,23.04
2017-10-12T13:46:16.401Z,23.01
2017-10-12T13:47:25.525Z,23.01
2017-10-12T13:48:34.220Z,23.04
2017-10-12T13:49:43.555Z,23.01
2017-10-12T13:50:52.571Z,23.09
2017-10-12T13:52:01.601Z,23.07
2017-10-12T13:53:10.278Z,23.07
2017-10-12T13:54:19.317Z,23.05
2017-10-12T13:55:28.021Z,23.04
2017-10-12T13:56:37.025Z,23.01
2017-10-12T13:57:46.740Z,23.1
2017-10-12T13:58:55.390Z,23.01
2017-10-12T14:00:04.098Z,23.02
2017-10-12T14:01:13.146Z,23.02
2017-10-12T14:02:22.176Z,23.04
2017-10-12T14:03:31.207Z,23.01
2017-10-12T14:04:40.240Z,22.97
2017-10-12T14:05:49.576Z,22.97
2017-10-12T14:06:59.672Z,22.97
2017-10-12T14:08:09.244Z,22.97
2017-10-12T14:09:18.260Z,23.04
2017-10-12T14:10:27.269Z,23.01
2017-10-12T14:11:36.267Z,23
2017-10-12T14:12:45.591Z,22.97
2017-10-12T14:13:54.611Z,23
2017-10-12T14:15:03.598Z,23.01
2017-10-12T14:16:12.928Z,23
2017-10-12T14:17:22.943Z,23.05
2017-10-12T14:18:31.941Z,23
2017-10-12T14:19:40.937Z,23.01
2017-10-12T14:20:49.932Z,23.02
2017-10-12T14:21:58.924Z,23.04
2017-10-12T14:23:07.924Z,23.05
2017-10-12T14:24:16.926Z,23.01
2017-10-12T14:25:26.628Z,23
2017-10-12T14:26:36.306Z,23.09
2017-10-12T14:27:44.972Z,22.98
2017-10-12T14:28:54.941Z,23.01
2017-10-12T14:30:04.369Z,23.02
2017-10-12T14:31:14.704Z,23.04
2017-10-12T14:32:24.051Z,23.01
2017-10-12T14:33:32.736Z,23.02
2017-10-12T14:34:41.423Z,23.05
2017-10-12T14:35:50.446Z,23.01
2017-10-12T14:36:59.811Z,22.97
2017-10-12T14:38:08.826Z,23.05
2017-10-12T14:39:17.803Z,23
2017-10-12T14:40:27.460Z,22.98
2017-10-12T14:41:36.806Z,23.04
2017-10-12T14:42:45.869Z,23.01
2017-10-12T14:43:55.218Z,23.05
2017-10-12T14:45:04.598Z,23.05
2017-10-12T14:46:13.597Z,23
2017-10-12T14:47:22.611Z,23
2017-10-12T14:48:32.285Z,22.97
2017-10-12T14:49:40.945Z,23.01
2017-10-12T14:50:49.957Z,22.97
2017-10-12T14:51:58.634Z,22.98
2017-10-12T14:53:08.074Z,22.97
2017-10-12T14:54:17.069Z,23
2017-10-12T14:55:25.750Z,22.95
2017-10-12T14:56:35.112Z,22.98